createdAt,value
2023-07-01T00:02:44.765Z,9.05
2023-07-01T00:05:32.616Z,9.98
2023-07-01T00:08:21.882Z,8.43
2023-07-01T00:11:09.767Z,7.65
2023-07-01T00:13:57.851Z,10.35
2023-07-01T00:16:45.730Z,9.25
2023-07-01T00:19:33.814Z,11.13
2023-07-01T00:22:21.745Z,8.65
2023-07-01T00:25:11.286Z,8.25
2023-07-01T00:27:59.063Z,16.70
2023-07-01T00:30:47.151Z,9.00
2023-07-01T00:33:35.051Z,8.95
2023-07-01T00:36:22.782Z,9.07
2023-07-01T00:39:10.623Z,8.00
2023-07-01T00:41:59.744Z,10.57
2023-07-01T00:44:47.550Z,8.65
2023-07-01T00:47:35.437Z,8.35
2023-07-01T00:50:23.711Z,8.75
2023-07-01T00:53:11.557Z,8.02
2023-07-01T00:55:59.567Z,9.02
2023-07-01T00:58:49.026Z,7.90
2023-07-01T01:01:40.976Z,8.15
2023-07-01T01:04:35.725Z,8.02
2023-07-01T01:07:29.172Z,9.07
2023-07-01T01:10:24.411Z,8.43
2023-07-01T01:13:14.841Z,8.02
2023-07-01T01:16:05.061Z,7.97
2023-07-01T01:18:54.362Z,10.18
2023-07-01T01:21:44.541Z,11.27
2023-07-01T01:24:39.241Z,10.15
2023-07-01T01:27:30.620Z,7.43
2023-07-01T01:30:19.846Z,8.75
2023-07-01T01:33:08.298Z,8.48
2023-07-01T01:36:02.567Z,8.93
2023-07-01T01:41:44.627Z,8.82
2023-07-01T01:44:46.372Z,9.45
2023-07-01T01:47:37.935Z,8.18
2023-07-01T01:50:26.764Z,8.80
2023-07-01T01:53:15.096Z,8.63
2023-07-01T01:56:04.746Z,8.73
2023-07-01T01:58:52.701Z,9.93
2023-07-01T02:01:41.063Z,8.85
2023-07-01T02:04:30.684Z,8.95
2023-07-01T02:07:18.589Z,11.00
2023-07-01T02:10:07.706Z,9.85
2023-07-01T02:12:55.489Z,8.25
2023-07-01T02:15:43.506Z,7.80
2023-07-01T02:18:31.411Z,8.90
2023-07-01T02:21:20.791Z,11.57
2023-07-01T02:24:08.755Z,9.80
2023-07-01T02:26:56.488Z,11.95
2023-07-01T02:29:45.678Z,9.07
2023-07-01T02:32:33.555Z,9.73
2023-07-01T02:35:21.756Z,9.57
2023-07-01T02:38:11.138Z,8.40
2023-07-01T02:40:59.310Z,10.13
2023-07-01T02:43:47.122Z,12.32
2023-07-01T02:46:35.203Z,11.73
2023-07-01T02:49:22.989Z,10.68
2023-07-01T02:52:11.385Z,20.60
2023-07-01T02:55:00.540Z,12.43
2023-07-01T02:57:49.098Z,8.75
2023-07-01T03:00:36.949Z,11.13
2023-07-01T03:03:25.604Z,10.90
2023-07-01T03:06:13.921Z,10.40
2023-07-01T03:09:01.893Z,9.38
2023-07-01T03:11:53.216Z,11.32
2023-07-01T03:14:41.007Z,11.15
2023-07-01T03:17:28.944Z,13.77
2023-07-01T03:20:24.492Z,13.65
2023-07-01T03:23:12.552Z,10.13
2023-07-01T03:26:01.848Z,10.15
2023-07-01T03:28:51.001Z,12.75
2023-07-01T03:31:38.976Z,10.00
2023-07-01T03:34:27.003Z,11.57
2023-07-01T03:37:14.840Z,11.23
2023-07-01T03:40:02.633Z,12.77
2023-07-01T03:42:50.485Z,11.15
2023-07-01T03:45:39.702Z,9.25
2023-07-01T03:48:27.622Z,11.80
2023-07-01T03:51:16.513Z,10.00
2023-07-01T03:54:04.592Z,10.98
2023-07-01T03:56:52.501Z,13.13
2023-07-01T03:59:40.283Z,12.48
2023-07-01T04:02:29.693Z,11.77
2023-07-01T04:05:17.934Z,12.30
2023-07-01T04:08:05.972Z,11.75
2023-07-01T04:10:53.837Z,13.35
2023-07-01T04:13:41.664Z,12.10
2023-07-01T04:16:30.639Z,16.10
2023-07-01T04:19:19.878Z,13.57
2023-07-01T04:22:08.085Z,11.07
2023-07-01T04:24:55.875Z,14.55
2023-07-01T04:27:44.957Z,12.32
2023-07-01T04:30:32.995Z,12.90
2023-07-01T04:33:21.313Z,13.57
2023-07-01T04:36:10.431Z,13.25
2023-07-01T04:38:58.454Z,13.23
2023-07-01T04:41:46.147Z,14.23
2023-07-01T04:44:34.168Z,14.52
2023-07-01T04:47:22.337Z,12.82
2023-07-01T04:50:10.524Z,10.90
2023-07-01T04:52:59.822Z,9.60
2023-07-01T04:55:47.969Z,11.15
2023-07-01T04:58:36.009Z,8.68
2023-07-01T05:01:24.085Z,11.50
2023-07-01T05:04:12.323Z,12.68
2023-07-01T05:07:00.697Z,11.15
2023-07-01T05:09:49.875Z,11.15
2023-07-01T05:12:37.671Z,10.93
2023-07-01T05:15:25.632Z,11.60
2023-07-01T05:18:13.449Z,9.68
2023-07-01T05:21:01.329Z,10.05
2023-07-01T05:23:49.191Z,10.40
2023-07-01T05:26:38.528Z,13.38
2023-07-01T05:29:27.829Z,11.52
2023-07-01T05:32:15.678Z,16.30
2023-07-01T05:35:04.017Z,10.23
2023-07-01T05:37:51.886Z,9.82
2023-07-01T05:40:40.310Z,11.20
2023-07-01T05:43:29.724Z,12.75
2023-07-01T05:46:17.713Z,11.02
2023-07-01T05:49:05.455Z,11.98
2023-07-01T05:51:53.392Z,12.93
2023-07-01T05:54:41.408Z,12.63
2023-07-01T05:57:29.522Z,10.10
2023-07-01T06:00:19.611Z,16.77
2023-07-01T06:03:07.417Z,18.20
2023-07-01T06:05:55.440Z,19.85
2023-07-01T06:08:43.784Z,14.30
2023-07-01T06:11:31.662Z,10.85
2023-07-01T06:14:19.424Z,13.50
2023-07-01T06:17:08.648Z,11.95
2023-07-01T06:19:56.578Z,9.82
2023-07-01T06:22:44.355Z,13.50
2023-07-01T06:25:32.324Z,9.05
2023-07-01T06:28:20.216Z,9.25
2023-07-01T06:31:08.240Z,16.45
2023-07-01T06:33:57.485Z,8.18
2023-07-01T06:36:46.038Z,9.13
2023-07-01T06:39:34.134Z,10.02
2023-07-01T06:42:22.803Z,9.93
2023-07-01T06:45:11.228Z,9.60
2023-07-01T06:47:59.879Z,10.43
2023-07-01T06:50:49.331Z,10.60
2023-07-01T06:53:40.166Z,11.18
2023-07-01T06:56:28.163Z,10.45
2023-07-01T06:59:16.033Z,13.73
2023-07-01T07:02:04.074Z,11.20
2023-07-01T07:04:53.589Z,11.95
2023-07-01T07:07:42.940Z,13.00
2023-07-01T07:10:30.739Z,10.43
2023-07-01T07:13:19.855Z,13.45
2023-07-01T07:16:07.789Z,12.35
2023-07-01T07:18:55.609Z,13.07
2023-07-01T07:21:43.714Z,11.45
2023-07-01T07:24:33.042Z,14.35
2023-07-01T07:27:21.118Z,10.93
2023-07-01T07:30:09.922Z,12.30
2023-07-01T07:32:58.061Z,9.75
2023-07-01T07:35:46.374Z,11.15
2023-07-01T07:38:34.064Z,12.93
2023-07-01T07:41:23.293Z,11.32
2023-07-01T07:44:11.518Z,9.95
2023-07-01T07:47:01.271Z,9.63
2023-07-01T07:49:49.251Z,12.32
2023-07-01T07:52:37.222Z,13.02
2023-07-01T07:55:27.162Z,10.35
2023-07-01T07:58:16.291Z,10.57
2023-07-01T08:01:04.220Z,10.35
2023-07-01T08:03:52.384Z,10.90
2023-07-01T08:06:40.278Z,13.45
2023-07-01T08:09:28.127Z,9.98
2023-07-01T08:12:16.541Z,11.10
2023-07-01T08:15:09.359Z,10.90
2023-07-01T08:17:57.373Z,10.75
2023-07-01T08:20:45.939Z,10.65
2023-07-01T08:23:34.592Z,11.30
2023-07-01T08:26:22.423Z,11.07
2023-07-01T08:29:11.273Z,11.27
2023-07-01T08:32:01.428Z,9.85
2023-07-01T08:34:49.146Z,10.55
2023-07-01T08:37:37.354Z,10.80
2023-07-01T08:40:25.049Z,11.35
2023-07-01T08:43:13.209Z,9.00
2023-07-01T08:46:04.960Z,8.98
2023-07-01T08:48:57.450Z,10.00
2023-07-01T08:51:46.803Z,9.43
2023-07-01T08:54:36.243Z,8.63
2023-07-01T08:57:24.250Z,8.80
2023-07-01T09:00:14.514Z,9.35
2023-07-01T09:03:04.618Z,8.57
2023-07-01T09:05:54.054Z,7.97
2023-07-01T09:08:41.919Z,7.72
2023-07-01T09:11:30.238Z,8.52
2023-07-01T09:14:18.107Z,8.13
2023-07-01T09:17:27.654Z,7.78
2023-07-01T09:20:15.861Z,11.95
2023-07-01T09:23:05.009Z,6.88
2023-07-01T09:25:52.785Z,6.15
2023-07-01T09:28:41.371Z,9.30
2023-07-01T09:31:29.389Z,9.00
2023-07-01T09:34:18.531Z,7.43
2023-07-01T09:37:18.221Z,6.95
2023-07-01T09:40:21.658Z,7.22
2023-07-01T09:43:09.607Z,8.37
2023-07-01T09:45:57.804Z,7.07
2023-07-01T09:48:54.091Z,7.93
2023-07-01T09:51:50.341Z,7.70
2023-07-01T09:54:39.364Z,9.55
2023-07-01T09:57:28.806Z,7.78
2023-07-01T10:00:17.759Z,8.10
2023-07-01T10:03:05.623Z,9.05
2023-07-01T10:05:54.608Z,7.30
2023-07-01T10:08:44.914Z,7.03
2023-07-01T10:11:34.457Z,5.88
2023-07-01T10:14:25.516Z,6.05
2023-07-01T10:17:13.660Z,13.73
2023-07-01T10:20:28.644Z,8.63
2023-07-01T10:23:16.610Z,8.63
2023-07-01T10:26:36.336Z,8.27
2023-07-01T10:29:57.090Z,5.68
2023-07-01T10:32:45.090Z,6.70
2023-07-01T10:35:33.183Z,6.72
2023-07-01T10:38:22.381Z,6.65
2023-07-01T10:41:10.462Z,7.93
2023-07-01T10:44:26.608Z,5.85
2023-07-01T10:47:19.092Z,6.53
2023-07-01T10:50:11.890Z,6.47
2023-07-01T10:53:03.972Z,5.85
2023-07-01T10:55:52.255Z,6.30
2023-07-01T10:58:40.528Z,5.03
2023-07-01T11:01:43.942Z,5.82
2023-07-01T11:05:04.865Z,7.03
2023-07-01T11:07:54.432Z,5.50
2023-07-01T11:10:45.157Z,8.25
2023-07-01T11:13:32.963Z,8.10
2023-07-01T11:16:22.873Z,9.65
2023-07-01T11:19:16.681Z,14.98
2023-07-01T11:22:05.424Z,13.98
2023-07-01T11:25:04.180Z,6.05
2023-07-01T11:27:52.016Z,6.78
2023-07-01T11:30:39.880Z,6.00
2023-07-01T11:33:27.746Z,5.57
2023-07-01T11:36:16.968Z,7.03
2023-07-01T11:39:10.364Z,6.72
2023-07-01T11:42:02.354Z,5.82
2023-07-01T11:44:50.113Z,5.30
2023-07-01T11:47:37.970Z,5.20
2023-07-01T11:50:25.797Z,5.60
2023-07-01T11:53:13.769Z,7.25
2023-07-01T11:56:03.415Z,7.40
2023-07-01T11:59:01.325Z,5.68
2023-07-01T12:01:49.670Z,6.00
2023-07-01T12:04:38.382Z,5.82
2023-07-01T12:07:26.527Z,6.93
2023-07-01T12:10:22.397Z,6.68
2023-07-01T12:13:29.856Z,5.70
2023-07-01T12:16:20.274Z,5.93
2023-07-01T12:19:08.100Z,6.20
2023-07-01T12:21:57.701Z,5.90
2023-07-01T12:24:45.627Z,6.18
2023-07-01T12:27:34.712Z,8.20
2023-07-01T12:30:23.021Z,5.72
2023-07-01T12:33:12.197Z,5.97
2023-07-01T12:36:01.134Z,11.35
2023-07-01T12:38:48.915Z,5.50
2023-07-01T12:41:37.358Z,6.40
2023-07-01T12:44:25.115Z,7.00
2023-07-01T12:47:13.230Z,5.78
2023-07-01T12:50:02.558Z,6.78
2023-07-01T12:52:54.273Z,5.55
2023-07-01T12:55:42.480Z,6.03
2023-07-01T12:58:30.396Z,6.28
2023-07-01T13:01:18.388Z,5.97
2023-07-01T13:04:07.021Z,5.20
2023-07-01T13:06:56.328Z,5.93
2023-07-01T13:09:51.177Z,5.43
2023-07-01T13:12:39.397Z,5.88
2023-07-01T13:15:33.612Z,6.32
2023-07-01T13:18:23.393Z,6.57
2023-07-01T13:21:11.494Z,6.57
2023-07-01T13:24:05.889Z,7.68
2023-07-01T13:26:58.765Z,6.85
2023-07-01T13:29:46.606Z,6.90
2023-07-01T13:32:34.619Z,7.45
2023-07-01T13:35:23.393Z,6.28
2023-07-01T13:38:11.815Z,7.88
2023-07-01T13:41:01.127Z,6.35
2023-07-01T13:43:49.058Z,5.55
2023-07-01T13:46:42.108Z,5.90
2023-07-01T13:49:32.194Z,6.28
2023-07-01T13:52:19.954Z,6.07
2023-07-01T13:55:10.544Z,9.95
2023-07-01T13:57:59.985Z,8.77
2023-07-01T14:00:50.509Z,8.45
2023-07-01T14:03:48.755Z,6.50
2023-07-01T14:06:40.488Z,6.55
2023-07-01T14:09:30.012Z,6.88
2023-07-01T14:12:19.389Z,7.32
2023-07-01T14:15:09.117Z,8.18
2023-07-01T14:17:56.961Z,5.65
2023-07-01T14:20:47.285Z,6.47
2023-07-01T14:23:39.018Z,7.05
2023-07-01T14:26:30.008Z,7.40
2023-07-01T14:29:18.251Z,6.15
2023-07-01T14:32:09.939Z,6.55
2023-07-01T14:34:58.032Z,7.85
2023-07-01T14:37:48.940Z,6.15
2023-07-01T14:40:37.689Z,7.22
2023-07-01T14:43:25.497Z,6.32
2023-07-01T14:46:13.552Z,6.65
2023-07-01T14:49:04.512Z,6.13
2023-07-01T14:51:52.316Z,6.30
2023-07-01T14:54:40.131Z,5.50
2023-07-01T14:57:27.966Z,8.95
2023-07-01T15:00:15.998Z,5.78
2023-07-01T15:03:03.793Z,10.02
2023-07-01T15:05:53.300Z,8.43
2023-07-01T15:08:41.721Z,7.75
2023-07-01T15:11:29.691Z,7.22
2023-07-01T15:14:17.500Z,6.43
2023-07-01T15:17:06.038Z,9.48
2023-07-01T15:19:53.882Z,7.60
2023-07-01T15:22:43.353Z,6.15
2023-07-01T15:25:31.281Z,6.18
2023-07-01T15:28:19.615Z,7.93
2023-07-01T15:31:07.709Z,7.60
2023-07-01T15:33:55.522Z,6.60
2023-07-01T15:36:43.424Z,6.40
2023-07-01T15:39:33.104Z,5.55
2023-07-01T15:42:21.085Z,6.47
2023-07-01T15:45:10.107Z,5.70
2023-07-01T15:47:58.222Z,5.70
2023-07-01T15:50:46.115Z,5.43
2023-07-01T15:53:34.718Z,6.20
2023-07-01T15:56:24.361Z,6.35
2023-07-01T15:59:12.292Z,6.15
2023-07-01T16:02:03.236Z,5.28
2023-07-01T16:04:51.160Z,6.60
2023-07-01T16:07:59.421Z,5.63
2023-07-01T16:10:50.747Z,6.28
2023-07-01T16:13:41.003Z,6.07
2023-07-01T16:16:43.271Z,6.10
2023-07-01T16:19:39.056Z,9.80
2023-07-01T16:22:27.994Z,8.20
2023-07-01T16:25:15.788Z,8.05
2023-07-01T16:28:04.680Z,8.48
2023-07-01T16:30:54.145Z,8.52
2023-07-01T16:33:42.298Z,7.82
2023-07-01T16:36:36.277Z,9.77
2023-07-01T16:42:13.482Z,8.13
2023-07-01T16:45:01.657Z,14.48
2023-07-01T16:47:51.167Z,9.27
2023-07-01T16:50:55.022Z,9.35
2023-07-01T16:53:44.754Z,8.70
2023-07-01T16:56:40.094Z,9.48
2023-07-01T16:59:43.034Z,9.38
2023-07-01T17:03:00.898Z,8.65
2023-07-01T17:05:50.782Z,9.23
2023-07-01T17:08:39.467Z,10.20
2023-07-01T17:11:44.625Z,8.02
2023-07-01T17:14:43.232Z,8.52
2023-07-01T17:17:49.027Z,9.52
2023-07-01T17:20:37.070Z,6.90
2023-07-01T17:23:26.768Z,8.77
2023-07-01T17:26:16.108Z,9.07
2023-07-01T17:29:03.946Z,9.60
2023-07-01T17:31:51.861Z,11.63
2023-07-01T17:34:46.125Z,8.77
2023-07-01T17:37:33.937Z,10.65
2023-07-01T17:40:24.732Z,12.20
2023-07-01T17:43:12.648Z,8.25
2023-07-01T17:46:00.602Z,9.10
2023-07-01T17:48:48.408Z,7.70
2023-07-01T17:51:36.294Z,8.40
2023-07-01T17:54:24.010Z,9.98
2023-07-01T17:57:13.605Z,8.32
2023-07-01T18:00:01.879Z,7.88
2023-07-01T18:02:50.071Z,8.43
2023-07-01T18:05:38.336Z,8.95
2023-07-01T18:08:26.158Z,8.43
2023-07-01T18:11:14.144Z,7.95
2023-07-01T18:14:03.729Z,8.75
2023-07-01T18:16:53.456Z,10.40
2023-07-01T18:19:41.880Z,10.30
2023-07-01T18:22:29.717Z,11.68
2023-07-01T18:25:17.693Z,8.20
2023-07-01T18:28:05.618Z,8.45
2023-07-01T18:30:54.778Z,9.48
2023-07-01T18:33:42.589Z,12.93
2023-07-01T18:36:30.530Z,9.07
2023-07-01T18:39:18.292Z,11.75
2023-07-01T18:42:06.799Z,10.57
2023-07-01T18:44:54.503Z,10.93
2023-07-01T18:47:44.059Z,11.07
2023-07-01T18:50:31.921Z,8.95
2023-07-01T18:53:19.716Z,8.85
2023-07-01T18:56:07.732Z,10.07
2023-07-01T18:58:55.643Z,10.60
2023-07-01T19:01:43.445Z,11.20
2023-07-01T19:04:34.966Z,10.30
2023-07-01T19:07:22.996Z,9.05
2023-07-01T19:10:11.403Z,10.77
2023-07-01T19:12:59.412Z,8.85
2023-07-01T19:15:47.700Z,7.90
2023-07-01T19:18:35.940Z,9.30
2023-07-01T19:21:25.119Z,12.48
2023-07-01T19:24:12.918Z,10.88
2023-07-01T19:27:01.485Z,7.68
2023-07-01T19:30:03.321Z,10.65
2023-07-01T19:32:56.369Z,10.07
2023-07-01T19:35:44.193Z,11.82
2023-07-01T19:38:34.433Z,10.48
2023-07-01T19:41:22.456Z,9.10
2023-07-01T19:44:10.132Z,8.00
2023-07-01T19:46:58.041Z,8.73
2023-07-01T19:49:45.773Z,8.23
2023-07-01T19:52:35.722Z,10.30
2023-07-01T19:55:24.913Z,8.55
2023-07-01T19:58:12.717Z,10.02
2023-07-01T20:01:00.520Z,8.18
2023-07-01T20:03:48.394Z,8.65
2023-07-01T20:06:36.276Z,8.18
2023-07-01T20:09:23.983Z,10.02
2023-07-01T20:12:14.299Z,8.90
2023-07-01T20:15:02.362Z,8.43
2023-07-01T20:17:50.443Z,8.02
2023-07-01T20:20:38.386Z,9.38
2023-07-01T20:23:26.352Z,12.40
2023-07-01T20:26:14.081Z,7.78
2023-07-01T20:29:03.166Z,11.02
2023-07-01T20:31:51.017Z,11.10
2023-07-01T20:34:38.845Z,11.52
2023-07-01T20:37:26.585Z,14.18
2023-07-01T20:40:15.031Z,12.07
2023-07-01T20:43:03.008Z,21.38
2023-07-01T20:45:52.310Z,28.17
2023-07-01T20:48:40.320Z,18.45
2023-07-01T20:51:28.193Z,12.55
2023-07-01T20:54:16.215Z,9.07
2023-07-01T20:57:03.908Z,16.92
2023-07-01T20:59:51.708Z,13.00
2023-07-01T21:02:40.931Z,13.45
2023-07-01T21:05:33.776Z,12.63
2023-07-01T21:08:21.870Z,13.43
2023-07-01T21:11:09.686Z,13.77
2023-07-01T21:13:57.611Z,12.75
2023-07-01T21:16:50.463Z,16.02
2023-07-01T21:19:42.221Z,15.30
2023-07-01T21:22:30.790Z,13.93
2023-07-01T21:25:18.546Z,13.93
2023-07-01T21:28:08.254Z,10.85
2023-07-01T21:30:56.056Z,14.88
2023-07-01T21:33:44.031Z,12.57
2023-07-01T21:36:33.907Z,10.85
2023-07-01T21:39:24.529Z,14.15
2023-07-01T21:42:12.774Z,11.32
2023-07-01T21:45:00.533Z,11.82
2023-07-01T21:47:48.378Z,11.32
2023-07-01T21:50:52.389Z,10.63
2023-07-01T21:53:42.880Z,10.98
2023-07-01T21:56:40.089Z,10.90
2023-07-01T21:59:29.717Z,13.52
2023-07-01T22:02:25.820Z,12.43
2023-07-01T22:05:15.788Z,11.23
2023-07-01T22:08:04.282Z,12.75
2023-07-01T22:10:58.635Z,14.05
2023-07-01T22:13:46.795Z,14.10
2023-07-01T22:16:35.898Z,12.02
2023-07-01T22:19:23.984Z,14.75
2023-07-01T22:22:11.949Z,13.82
2023-07-01T22:25:00.074Z,12.85
2023-07-01T22:27:49.356Z,13.30
2023-07-01T22:30:37.220Z,12.13
2023-07-01T22:33:25.251Z,13.02
2023-07-01T22:36:12.973Z,11.80
2023-07-01T22:39:00.792Z,12.40
2023-07-01T22:41:48.587Z,21.73
2023-07-01T22:44:37.806Z,12.23
2023-07-01T22:47:25.703Z,15.15
2023-07-01T22:50:17.850Z,12.13
2023-07-01T22:53:05.686Z,12.02
2023-07-01T22:55:53.866Z,14.32
2023-07-01T22:58:41.710Z,11.35
2023-07-01T23:01:31.059Z,12.77
2023-07-01T23:04:19.039Z,14.60
2023-07-01T23:07:07.360Z,11.77
2023-07-01T23:09:55.146Z,11.35
2023-07-01T23:12:43.016Z,10.80
2023-07-01T23:15:30.832Z,12.52
2023-07-01T23:18:20.105Z,13.23
2023-07-01T23:21:08.070Z,15.30
2023-07-01T23:23:55.776Z,14.50
2023-07-01T23:26:43.739Z,12.80
2023-07-01T23:29:31.628Z,12.15
2023-07-01T23:32:22.675Z,11.73
2023-07-01T23:35:11.992Z,11.18
2023-07-01T23:37:59.841Z,11.23
2023-07-01T23:40:47.962Z,13.32
2023-07-01T23:43:35.967Z,11.20
2023-07-01T23:46:24.211Z,14.18
2023-07-01T23:49:11.852Z,12.18
2023-07-01T23:52:01.172Z,12.40
2023-07-01T23:54:49.915Z,11.57
2023-07-01T23:57:38.768Z,12.43
